Flight Track Log - Related Links

Times and Time Zones

All times are in EDT time to prevent confusion due to time zone crossing. See the N96DQ flight status page for this flight to view local times or setup timezone preferences in your user account.

Time Position Orientation Groundspeed Altitude Reporting Facility
EDT Latitude Longitude Course Direction KTS MPH feet Rate Location/Type
Sun 12:12:17 PM 30.9381 -81.3594 180° South 264 304 7,200  Level Jacksonville Center
Sun 12:13:17 PM 30.8875 -81.3433 165° South 228 262 8,600 1,400 Climbing Jacksonville Center
Sun 12:14:17 PM 30.8372 -81.3294 167° South 200 230 10,000 1,400 Climbing Jacksonville Center
Sun 12:15:17 PM 30.7850 -81.3161 168° South 195 224 11,400 1,150 Climbing Jacksonville Center
Sun 12:16:17 PM 30.7283 -81.3000 166° South 195 224 12,300 1,050 Climbing Jacksonville Center
Sun 12:17:00 PM 30.7877 -81.2833 180° South  Level FlightAware Approximate
Sun 12:17:17 PM 30.6719 -81.2839 166° South 202 232 13,500  Level Jacksonville Center
Sun 12:18:17 PM 30.6153 -81.2706 169° South 207 238 14,600 1,150 Climbing Jacksonville Center
Sun 12:19:17 PM 30.5586 -81.2544 166° South 207 238 15,800 1,200 Climbing Jacksonville Center
Sun 12:20:17 PM 30.5022 -81.2364 165° South 207 238 17,000 1,050 Climbing Jacksonville Center
Sun 12:21:17 PM 30.4475 -81.2203 166° South 207 238 17,900 950 Climbing Jacksonville Center
Sun 12:22:17 PM 30.3931 -81.2044 166° South 202 232 18,900 950 Climbing Jacksonville Center
Sun 12:23:17 PM 30.3367 -81.1933 170° South 202 232 19,800 850 Climbing Jacksonville Center
Sun 12:24:17 PM 30.2822 -81.1775 166° South 202 232 20,600 800 Climbing Jacksonville Center
Sun 12:25:17 PM 30.2256 -81.1664 170° South 202 232 21,400 800 Climbing Jacksonville Center
Sun 12:26:17 PM 30.1692 -81.1603 175° South 202 232 22,200 750 Climbing Jacksonville Center
Sun 12:27:17 PM 30.1128 -81.1614 181° South 202 232 22,900 550 Climbing Jacksonville Center
Sun 12:28:17 PM 30.0606 -81.1575 176° South 197 227 23,300 450 Climbing Jacksonville Center
Sun 12:29:17 PM 30.0000 -81.1536 177° South 208 239 23,800 350 Climbing Jacksonville Center
Sun 12:30:17 PM 29.9353 -81.1525 179° South 224 258 24,000 100 Climbing Jacksonville Center
Sun 12:31:17 PM 29.8642 -81.1467 176° South 244 281 24,000  Level Jacksonville Center
Sun 12:32:17 PM 29.7911 -81.1383 174° South 257 296 24,000  Level Jacksonville Center
Sun 12:33:17 PM 29.7197 -81.1253 171° South 262 302 24,000 -100 Level Jacksonville Center
Sun 12:34:17 PM 29.6467 -81.1122 171° South 267 307 23,800 -350 Descending Jacksonville Center
Sun 12:35:17 PM 29.5692 -81.1089 178° South 272 313 23,300 -700 Descending Jacksonville Center
Sun 12:36:17 PM 29.4939 -81.1008 175° South 272 313 22,400 -600 Descending Jacksonville Center
Sun 12:37:17 PM 29.4186 -81.0736 163° South 272 313 22,100 -200 Descending Jacksonville Center
Sun 12:38:17 PM 29.3492 -81.0508 164° South 272 313 22,000 -50 Descending Jacksonville Center
Sun 12:39:17 PM 29.2781 -81.0286 165° South 272 313 22,000  Level Jacksonville Center
Sun 12:40:17 PM 29.2086 -81.0036 163° South 265 305 22,000  Level Jacksonville Center
Sun 12:41:17 PM 29.1417 -80.9811 164° South 260 299 22,000  Level Jacksonville Center
Sun 12:42:17 PM 29.0725 -80.9564 163° South 260 299 22,000 32 Level Jacksonville Center
Sun 12:44:26 PM 28.9350 -80.8808 154° Southeast 254 292 22,100 32 Climbing Miami Center
Sun 12:45:26 PM 28.8653 -80.8333 149° Southeast 254 292 22,100  Level Miami Center
Sun 12:46:26 PM 28.8100 -80.7981 151° Southeast 259 298 22,100  Level Miami Center
Sun 12:47:26 PM 28.7358 -80.7600 156° South 259 298 22,100  Level Miami Center
Sun 12:48:26 PM 28.6700 -80.7247 155° Southeast 259 298 22,100  Level Miami Center
Sun 12:49:26 PM 28.6022 -80.6914 157° South 254 292 22,100 -50 Level Miami Center
Sun 12:50:26 PM 28.5447 -80.6542 150° Southeast 254 292 22,000 -350 Descending Miami Center
Sun 12:51:26 PM 28.4814 -80.6047 146° Southeast 270 311 21,400 -700 Descending Miami Center
Sun 12:52:26 PM 28.4097 -80.5503 146° Southeast 281 323 20,600 -700 Descending Miami Center
Sun 12:53:26 PM 28.3422 -80.4986 146° Southeast 286 329 20,000 -600 Descending Miami Center
Sun 12:54:26 PM 28.2747 -80.4469 146° Southeast 292 336 19,400 -700 Descending Miami Center
Sun 12:55:26 PM 28.2172 -80.4028 146° Southeast 292 336 18,600 -750 Descending Miami Center
Sun 12:56:26 PM 28.1436 -80.3461 146° Southeast 292 336 17,900 -650 Descending Miami Center
Sun 12:57:26 PM 28.0778 -80.2972 147° Southeast 292 336 17,300 -650 Descending Miami Center
Sun 12:58:26 PM 28.0122 -80.2481 146° Southeast 292 336 16,600 -650 Descending Miami Center
Sun 12:59:26 PM 27.9467 -80.1967 145° Southeast 292 336 16,000 -500 Descending Miami Center
Sun 01:00:26 PM 27.8831 -80.1481 146° Southeast 287 330 15,600 -400 Descending Miami Center
Sun 01:01:26 PM 27.8214 -80.1017 146° Southeast 274 315 15,200 -250 Descending Miami Center
Sun 01:02:26 PM 27.7619 -80.0575 147° Southeast 268 308 15,100 -50 Descending Miami Center
Sun 01:03:26 PM 27.7044 -80.0139 146° Southeast 263 303 15,100  Level Miami Center
Sun 01:04:26 PM 27.6422 -79.9911 162° South 253 291 15,100 -150 Level Miami Center
Sun 01:05:26 PM 27.5756 -79.9939 182° South 244 281 14,800 -550 Descending Miami Center
Sun 01:06:26 PM 27.4939 -79.9986 183° South 263 303 14,000 -800 Descending Miami Center
Sun 01:07:26 PM 27.4208 -80.0014 182° South 263 303 13,200 -750 Descending Miami Center
Sun 01:08:26 PM 27.3475 -80.0086 185° South 268 308 12,500 -600 Descending Miami Center
Sun 01:09:26 PM 27.2847 -80.0117 182° South 268 308 12,000 -250 Descending Miami Center
Sun 01:10:26 PM 27.2139 -80.0144 182° South 268 308 12,000 -50 Level Miami Center
Sun 01:11:26 PM 27.1406 -80.0264 188° South 251 289 11,900 -150 Descending Miami Center
Sun 01:12:26 PM 27.0764 -79.9967 158° South 244 281 11,700 -500 Descending Miami Center
Sun 01:13:26 PM 27.0189 -79.9439 141° Southeast 244 281 10,900 -800 Descending Miami Center
Sun 01:14:26 PM 26.9719 -79.8983 139° Southeast 256 295 10,100 -750 Descending Miami Center
Sun 01:15:26 PM 26.9167 -79.8503 142° Southeast 256 295 9,400 -613 Descending Miami Center
Sun 01:17:00 PM 26.8143 -79.8374 195° South  Level FlightAware Approximate
Sun 01:20:38 PM 26.5872 -79.9233 194° South 222 255 6,300  Level Miami Center
Sun 01:22:10 PM 26.5011 -79.9464 193° South 217 250 5,100 -784 Descending Miami Center
Sun 01:23:11 PM 26.4381 -79.9611 192° South 223 257 4,300 -787 Descending Miami Center
Sun 01:24:00 PM 26.3130 -79.9868 194° South  Level FlightAware Approximate
Sun 01:24:12 PM 26.3769 -79.9803 196° South 216 249 3,500  Level Miami Center
Sun 01:25:00 PM 26.2412 -80.0073 194° South  Level FlightAware Approximate
Sun 01:25:13 PM 26.3203 -80.0019 199° South 210 242 2,300  Level Miami Center
Sun 01:26:00 PM 26.1694 -80.0278 194° South  Level FlightAware Approximate
Sun 01:26:14 PM 26.2983 -80.0503 243° Southwest 176 203 1,800  Level Miami Center
Sun 01:27:15 PM 26.2908 -80.0986 260° West 146 168 1,300 -634 Descending Miami Center
Sun 01:28:17 PM 26.2672 -80.1281 228° Southwest 113 130 500 -774 Descending Miami Center
Sun 01:30:00 PM 26.2471 -80.1111 173° South  Level Estimated
Sun 01:37:00 PM 26.2471 -80.1111 North  Level Estimated
Sun 01:38:00 PM 26.2471 -80.1111 13° North  Level Estimated

Login

Don't have an account? Register now (free) for customized features, flight alerts, and more!